Time,TemperatureF,DewpointF,PressureIn,WindDirection,WindDirectionDegrees,WindSpeedMPH,WindSpeedGustMPH,Humidity,HourlyPrecipIn,Conditions,Clouds,dailyrainin,SolarRadiationWatts/m^2,SoftwareType,DateUTC
2013-06-08 00:01:00,52.6,50.9,29.83,NW,326,0.0,2.0,94,0.02,,,0.80,0.00,VWS V14.00,2013-06-08 04:01:00,
2013-06-08 00:06:00,52.6,50.9,29.83,NW,326,0.0,0.0,94,0.02,,,0.01,0.00,VWS V14.00,2013-06-08 04:06:00,
2013-06-08 00:11:00,52.5,50.8,29.83,NW,326,0.0,1.0,94,0.02,,,0.01,0.00,VWS V14.00,2013-06-08 04:11:00,
2013-06-08 00:17:00,52.6,50.9,29.83,NW,326,1.0,2.0,94,0.02,,,0.01,0.00,VWS V14.00,2013-06-08 04:17:00,
2013-06-08 00:22:00,52.5,50.8,29.83,NW,326,0.0,0.0,94,0.02,,,0.02,0.00,VWS V14.00,2013-06-08 04:22:00,
2013-06-08 00:27:00,52.5,50.8,29.82,NW,326,1.0,2.0,94,0.02,,,0.02,0.00,VWS V14.00,2013-06-08 04:27:00,
2013-06-08 00:32:00,52.5,50.8,29.82,NW,326,0.0,1.0,94,0.02,,,0.02,0.00,VWS V14.00,2013-06-08 04:32:00,
2013-06-08 00:37:00,52.5,50.8,29.82,NW,326,0.0,0.0,94,0.03,,,0.03,0.00,VWS V14.00,2013-06-08 04:37:00,
2013-06-08 00:42:00,52.5,50.8,29.82,NW,326,2.0,3.0,94,0.03,,,0.03,0.00,VWS V14.00,2013-06-08 04:42:00,
2013-06-08 00:47:00,52.5,50.8,29.82,NW,326,0.0,0.0,94,0.04,,,0.04,0.00,VWS V14.00,2013-06-08 04:47:00,
2013-06-08 00:52:00,52.5,50.8,29.81,NW,326,0.0,0.0,94,0.04,,,0.04,0.00,VWS V14.00,2013-06-08 04:52:00,
2013-06-08 00:57:00,52.5,50.8,29.82,NW,326,0.0,2.0,94,0.04,,,0.04,0.00,VWS V14.00,2013-06-08 04:57:00,
2013-06-08 01:02:00,52.5,50.8,29.81,NW,326,1.0,2.0,94,0.04,,,0.04,0.00,VWS V14.00,2013-06-08 05:02:00,
2013-06-08 01:07:00,52.4,50.7,29.81,NW,326,1.0,2.0,94,0.04,,,0.05,0.00,VWS V14.00,2013-06-08 05:07:00,
2013-06-08 01:12:00,52.4,50.7,29.80,NW,326,0.0,1.0,94,0.04,,,0.05,0.00,VWS V14.00,2013-06-08 05:12:00,
2013-06-08 01:17:00,52.4,50.7,29.79,NW,326,1.0,2.0,94,0.04,,,0.05,0.00,VWS V14.00,2013-06-08 05:17:00,
2013-06-08 01:22:00,52.4,50.7,29.79,NW,326,2.0,2.0,94,0.04,,,0.06,0.00,VWS V14.00,2013-06-08 05:22:00,
2013-06-08 01:27:00,52.4,50.7,29.79,NW,326,0.0,1.0,94,0.04,,,0.06,0.00,VWS V14.00,2013-06-08 05:27:00,
2013-06-08 01:32:00,52.4,50.7,29.79,NW,326,0.0,1.0,94,0.04,,,0.06,0.00,VWS V14.00,2013-06-08 05:32:00,
2013-06-08 01:37:00,52.4,50.7,29.79,NW,326,0.0,0.0,94,0.03,,,0.06,0.00,VWS V14.00,2013-06-08 05:37:00,
2013-06-08 01:42:00,52.4,50.7,29.78,NW,326,2.0,2.0,94,0.03,,,0.06,0.00,VWS V14.00,2013-06-08 05:42:00,
2013-06-08 01:47:00,52.4,50.7,29.78,NW,326,1.0,2.0,94,0.02,,,0.06,0.00,VWS V14.00,2013-06-08 05:47:00,
2013-06-08 01:52:00,52.4,50.7,29.77,NW,326,0.0,2.0,94,0.02,,,0.06,0.00,VWS V14.00,2013-06-08 05:52:00,
2013-06-08 01:57:00,52.4,50.7,29.77,NW,326,1.0,3.0,94,0.02,,,0.06,0.00,VWS V14.00,2013-06-08 05:57:00,
2013-06-08 02:02:00,52.4,50.7,29.77,NW,326,0.0,3.0,94,0.02,,,0.06,0.00,VWS V14.00,2013-06-08 06:02:00,
2013-06-08 02:07:00,52.4,50.7,29.77,NW,326,0.0,0.0,94,0.01,,,0.06,0.00,VWS V14.00,2013-06-08 06:07:00,
2013-06-08 02:12:00,52.4,50.7,29.76,NW,326,0.0,1.0,94,0.01,,,0.06,0.00,VWS V14.00,2013-06-08 06:12:00,
2013-06-08 02:17:00,52.4,50.7,29.76,NW,326,0.0,0.0,94,0.01,,,0.06,0.00,VWS V14.00,2013-06-08 06:17:00,
2013-06-08 02:22:00,52.4,50.7,29.76,NW,326,0.0,0.0,94,0.00,,,0.06,0.00,VWS V14.00,2013-06-08 06:22:00,
2013-06-08 02:27:00,52.4,50.7,29.76,NW,326,0.0,0.0,94,0.00,,,0.06,0.00,VWS V14.00,2013-06-08 06:27:00,
2013-06-08 02:32:00,52.4,50.7,29.76,NW,326,0.0,0.0,94,0.00,,,0.06,0.00,VWS V14.00,2013-06-08 06:32:00,
2013-06-08 02:37:00,52.4,50.7,29.76,NW,326,0.0,0.0,94,0.00,,,0.06,0.00,VWS V14.00,2013-06-08 06:37:00,
2013-06-08 02:42:00,52.4,50.7,29.75,NW,326,0.0,2.0,94,0.00,,,0.06,0.00,VWS V14.00,2013-06-08 06:42:00,
2013-06-08 02:47:00,52.5,50.8,29.75,NW,326,0.0,1.0,94,0.00,,,0.06,0.00,VWS V14.00,2013-06-08 06:47:00,
2013-06-08 02:52:00,52.5,50.8,29.76,NW,326,0.0,2.0,94,0.00,,,0.06,0.00,VWS V14.00,2013-06-08 06:52:00,
2013-06-08 02:57:00,52.5,50.8,29.75,NW,326,0.0,2.0,94,0.00,,,0.06,0.00,VWS V14.00,2013-06-08 06:57:00,
2013-06-08 03:02:00,52.5,50.8,29.75,NW,326,0.0,0.0,94,0.00,,,0.06,0.00,VWS V14.00,2013-06-08 07:02:00,
2013-06-08 03:07:00,52.5,50.8,29.75,NW,326,2.0,2.0,94,0.01,,,0.07,0.00,VWS V14.00,2013-06-08 07:07:00,
2013-06-08 03:12:00,52.5,50.8,29.75,NW,326,0.0,0.0,94,0.01,,,0.07,0.00,VWS V14.00,2013-06-08 07:12:00,
2013-06-08 03:17:00,52.5,50.8,29.75,NW,326,0.0,1.0,94,0.01,,,0.07,0.00,VWS V14.00,2013-06-08 07:17:00,
2013-06-08 03:22:00,52.5,50.8,29.75,NW,326,0.0,0.0,94,0.01,,,0.07,0.00,VWS V14.00,2013-06-08 07:22:00,
2013-06-08 03:27:00,52.5,50.8,29.75,NW,326,2.0,2.0,94,0.02,,,0.08,0.00,VWS V14.00,2013-06-08 07:27:00,
2013-06-08 03:32:00,52.6,50.9,29.75,NW,326,0.0,3.0,94,0.02,,,0.08,0.00,VWS V14.00,2013-06-08 07:32:00,
2013-06-08 03:37:00,52.6,50.9,29.76,NW,326,0.0,2.0,94,0.02,,,0.08,0.00,VWS V14.00,2013-06-08 07:37:00,
2013-06-08 03:42:00,52.6,50.9,29.75,NW,326,0.0,3.0,94,0.02,,,0.08,0.00,VWS V14.00,2013-06-08 07:42:00,
2013-06-08 03:48:00,52.6,50.9,29.75,NW,326,0.0,0.0,94,0.02,,,0.08,0.00,VWS V14.00,2013-06-08 07:48:00,
2013-06-08 03:53:00,52.6,50.9,29.75,NW,326,0.0,0.0,94,0.02,,,0.08,0.00,VWS V14.00,2013-06-08 07:53:00,
2013-06-08 03:58:00,52.6,50.9,29.75,NW,326,0.0,0.0,94,0.02,,,0.08,0.00,VWS V14.00,2013-06-08 07:58:00,
2013-06-08 04:03:00,52.6,51.2,29.75,NW,326,0.0,0.0,95,0.02,,,0.08,0.00,VWS V14.00,2013-06-08 08:03:00,
2013-06-08 04:08:00,52.6,51.2,29.75,NW,326,0.0,0.0,95,0.01,,,0.08,0.00,VWS V14.00,2013-06-08 08:08:00,
2013-06-08 04:13:00,52.6,51.2,29.75,NW,326,0.0,0.0,95,0.01,,,0.08,0.00,VWS V14.00,2013-06-08 08:13:00,
2013-06-08 04:18:00,52.7,51.3,29.75,NW,326,0.0,0.0,95,0.01,,,0.08,0.00,VWS V14.00,2013-06-08 08:18:00,
2013-06-08 04:23:00,52.7,51.3,29.74,NW,326,0.0,0.0,95,0.01,,,0.08,0.00,VWS V14.00,2013-06-08 08:23:00,
2013-06-08 04:28:00,52.7,51.3,29.75,NW,326,0.0,0.0,95,0.00,,,0.08,0.00,VWS V14.00,2013-06-08 08:28:00,
2013-06-08 04:33:00,52.7,51.3,29.75,NW,326,0.0,0.0,95,0.00,,,0.08,0.00,VWS V14.00,2013-06-08 08:33:00,
2013-06-08 04:38:00,52.7,51.3,29.75,NW,326,0.0,0.0,95,0.00,,,0.08,0.00,VWS V14.00,2013-06-08 08:38:00,
2013-06-08 04:43:00,52.7,51.0,29.75,NW,326,0.0,0.0,94,0.00,,,0.08,0.00,VWS V14.00,2013-06-08 08:43:00,
2013-06-08 04:48:00,52.7,51.0,29.75,NW,326,0.0,0.0,94,0.00,,,0.08,0.00,VWS V14.00,2013-06-08 08:48:00,
2013-06-08 04:53:00,52.7,51.0,29.74,NW,326,0.0,0.0,94,0.00,,,0.08,0.00,VWS V14.00,2013-06-08 08:53:00,
2013-06-08 04:58:00,52.7,51.0,29.74,NW,326,0.0,0.0,94,0.00,,,0.08,0.00,VWS V14.00,2013-06-08 08:58:00,
2013-06-08 05:03:00,52.7,51.0,29.74,NW,326,0.0,0.0,94,0.00,,,0.08,0.00,VWS V14.00,2013-06-08 09:03:00,
2013-06-08 05:08:00,52.7,51.0,29.74,NW,326,0.0,0.0,94,0.00,,,0.08,0.00,VWS V14.00,2013-06-08 09:08:00,
2013-06-08 05:13:00,52.7,51.0,29.74,NW,326,0.0,0.0,94,0.00,,,0.08,0.00,VWS V14.00,2013-06-08 09:13:00,
2013-06-08 05:18:00,52.8,51.1,29.74,NW,326,0.0,0.0,94,0.00,,,0.08,0.00,VWS V14.00,2013-06-08 09:18:00,
2013-06-08 05:23:00,52.7,51.0,29.74,NW,326,0.0,0.0,94,0.00,,,0.08,5.00,VWS V14.00,2013-06-08 09:23:00,
2013-06-08 05:28:00,52.7,51.0,29.74,NW,326,0.0,0.0,94,0.00,,,0.08,9.00,VWS V14.00,2013-06-08 09:28:00,
2013-06-08 05:33:00,52.8,51.4,29.74,NW,326,0.0,0.0,95,0.00,,,0.08,12.00,VWS V14.00,2013-06-08 09:33:00,
2013-06-08 05:38:00,52.8,51.4,29.74,NW,326,0.0,0.0,95,0.00,,,0.08,16.00,VWS V14.00,2013-06-08 09:38:00,
2013-06-08 05:43:00,52.7,51.3,29.74,NW,326,0.0,0.0,95,0.00,,,0.08,21.00,VWS V14.00,2013-06-08 09:43:00,
2013-06-08 05:48:00,52.8,51.4,29.74,NW,326,0.0,2.0,95,0.00,,,0.08,26.00,VWS V14.00,2013-06-08 09:48:00,
2013-06-08 05:53:00,52.8,51.4,29.74,NW,326,3.0,4.0,95,0.00,,,0.08,30.00,VWS V14.00,2013-06-08 09:53:00,
2013-06-08 05:58:00,52.9,51.5,29.74,NW,326,0.0,1.0,95,0.00,,,0.08,33.00,VWS V14.00,2013-06-08 09:58:00,
2013-06-08 06:03:00,53.0,51.6,29.74,NW,326,1.0,3.0,95,0.00,,,0.08,37.00,VWS V14.00,2013-06-08 10:03:00,
2013-06-08 06:08:00,53.1,51.7,29.74,NW,326,2.0,4.0,95,0.00,,,0.08,44.00,VWS V14.00,2013-06-08 10:08:00,
2013-06-08 06:13:00,53.2,51.8,29.74,NW,326,0.0,3.0,95,0.00,,,0.08,54.00,VWS V14.00,2013-06-08 10:13:00,
2013-06-08 06:18:00,53.3,51.9,29.74,NW,326,2.0,5.0,95,0.00,,,0.08,49.00,VWS V14.00,2013-06-08 10:18:00,
2013-06-08 06:23:00,53.4,52.0,29.74,NW,326,0.0,3.0,95,0.00,,,0.08,46.00,VWS V14.00,2013-06-08 10:23:00,
2013-06-08 06:28:00,53.5,52.1,29.74,NW,326,0.0,3.0,95,0.00,,,0.08,44.00,VWS V14.00,2013-06-08 10:28:00,
2013-06-08 06:33:00,53.5,52.1,29.74,NW,326,1.0,3.0,95,0.00,,,0.08,40.00,VWS V14.00,2013-06-08 10:33:00,
2013-06-08 06:38:00,53.6,52.2,29.74,NW,326,0.0,1.0,95,0.00,,,0.08,39.00,VWS V14.00,2013-06-08 10:38:00,
2013-06-08 06:43:00,53.6,52.2,29.74,NW,326,0.0,0.0,95,0.00,,,0.08,40.00,VWS V14.00,2013-06-08 10:43:00,
2013-06-08 06:48:00,53.7,52.3,29.74,NW,326,0.0,0.0,95,0.00,,,0.08,56.00,VWS V14.00,2013-06-08 10:48:00,
2013-06-08 06:53:00,53.8,52.4,29.74,NW,326,0.0,0.0,95,0.00,,,0.08,81.00,VWS V14.00,2013-06-08 10:53:00,
2013-06-08 06:58:00,53.9,52.5,29.74,NW,326,0.0,1.0,95,0.00,,,0.08,83.00,VWS V14.00,2013-06-08 10:58:00,
2013-06-08 07:03:00,54.0,52.6,29.74,NW,326,0.0,2.0,95,0.00,,,0.08,77.00,VWS V14.00,2013-06-08 11:03:00,
2013-06-08 07:08:00,54.1,52.7,29.74,NW,326,0.0,3.0,95,0.00,,,0.08,56.00,VWS V14.00,2013-06-08 11:08:00,
2013-06-08 07:14:00,54.3,52.9,29.74,NW,326,0.0,2.0,95,0.00,,,0.08,72.00,VWS V14.00,2013-06-08 11:14:00,
2013-06-08 07:19:00,54.4,53.0,29.74,NW,326,0.0,3.0,95,0.00,,,0.08,91.00,VWS V14.00,2013-06-08 11:19:00,
2013-06-08 07:24:00,54.5,53.1,29.74,NW,326,1.0,2.0,95,0.00,,,0.08,113.00,VWS V14.00,2013-06-08 11:24:00,
2013-06-08 07:29:00,54.6,53.2,29.74,NW,326,0.0,2.0,95,0.00,,,0.08,137.00,VWS V14.00,2013-06-08 11:29:00,
2013-06-08 07:34:00,54.8,53.4,29.74,NW,326,2.0,3.0,95,0.00,,,0.08,199.00,VWS V14.00,2013-06-08 11:34:00,
2013-06-08 07:39:00,54.9,53.5,29.74,NW,326,0.0,3.0,95,0.00,,,0.08,195.00,VWS V14.00,2013-06-08 11:39:00,
2013-06-08 07:44:00,55.1,53.7,29.74,NW,326,0.0,2.0,95,0.00,,,0.08,169.00,VWS V14.00,2013-06-08 11:44:00,
2013-06-08 07:49:00,55.2,53.8,29.74,NNE,13,0.0,4.0,95,0.00,,,0.08,162.00,VWS V14.00,2013-06-08 11:49:00,
2013-06-08 07:54:00,55.3,53.9,29.74,North,11,1.0,2.0,95,0.00,,,0.08,176.00,VWS V14.00,2013-06-08 11:54:00,
2013-06-08 07:59:00,55.4,54.0,29.75,NE,51,0.0,2.0,95,0.00,,,0.08,197.00,VWS V14.00,2013-06-08 11:59:00,
2013-06-08 08:04:00,55.7,54.3,29.74,NE,51,1.0,1.0,95,0.00,,,0.08,237.00,VWS V14.00,2013-06-08 12:04:00,
2013-06-08 08:09:00,56.0,54.6,29.74,NE,51,0.0,2.0,95,0.00,,,0.08,487.00,VWS V14.00,2013-06-08 12:09:00,
2013-06-08 08:14:00,56.5,55.1,29.74,ENE,59,0.0,3.0,95,0.00,,,0.08,313.00,VWS V14.00,2013-06-08 12:14:00,
2013-06-08 08:19:00,56.8,55.4,29.74,ENE,61,1.0,1.0,95,0.00,,,0.08,355.00,VWS V14.00,2013-06-08 12:19:00,
2013-06-08 08:24:00,56.9,55.5,29.74,ESE,107,0.0,2.0,95,0.00,,,0.08,241.00,VWS V14.00,2013-06-08 12:24:00,
2013-06-08 08:29:00,57.0,55.6,29.75,ESE,121,0.0,2.0,95,0.00,,,0.08,584.00,VWS V14.00,2013-06-08 12:29:00,
2013-06-08 08:34:00,57.2,55.8,29.75,SE,124,0.0,2.0,95,0.00,,,0.08,253.00,VWS V14.00,2013-06-08 12:34:00,
2013-06-08 08:39:00,57.2,55.8,29.75,SE,124,0.0,2.0,95,0.00,,,0.08,236.00,VWS V14.00,2013-06-08 12:39:00,
2013-06-08 08:44:00,57.3,55.9,29.76,SE,124,0.0,2.0,95,0.00,,,0.08,279.00,VWS V14.00,2013-06-08 12:44:00,
2013-06-08 08:49:00,57.5,56.1,29.76,SE,124,0.0,2.0,95,0.00,,,0.08,311.00,VWS V14.00,2013-06-08 12:49:00,
2013-06-08 08:54:00,57.7,56.3,29.76,SE,124,0.0,2.0,95,0.00,,,0.08,243.00,VWS V14.00,2013-06-08 12:54:00,
2013-06-08 08:59:00,57.4,55.7,29.76,SE,124,0.0,2.0,94,0.00,,,0.08,236.00,VWS V14.00,2013-06-08 12:59:00,
2013-06-08 09:04:00,57.4,55.7,29.76,SE,126,0.0,3.0,94,0.00,,,0.08,274.00,VWS V14.00,2013-06-08 13:04:00,
2013-06-08 09:09:00,57.4,55.7,29.76,SE,127,0.0,2.0,94,0.00,,,0.08,308.00,VWS V14.00,2013-06-08 13:09:00,
2013-06-08 09:14:00,57.6,56.2,29.77,SE,127,0.0,1.0,95,0.00,,,0.08,258.00,VWS V14.00,2013-06-08 13:14:00,
2013-06-08 09:19:00,57.7,56.3,29.77,SE,145,1.0,3.0,95,0.00,,,0.08,285.00,VWS V14.00,2013-06-08 13:19:00,
2013-06-08 09:24:00,57.9,56.2,29.77,SSE,147,0.0,3.0,94,0.00,,,0.08,246.00,VWS V14.00,2013-06-08 13:24:00,
2013-06-08 09:29:00,58.1,56.4,29.77,SSE,156,0.0,3.0,94,0.00,,,0.08,276.00,VWS V14.00,2013-06-08 13:29:00,
2013-06-08 09:34:00,58.2,56.5,29.77,SSE,157,0.0,3.0,94,0.00,,,0.08,209.00,VWS V14.00,2013-06-08 13:34:00,
2013-06-08 09:39:00,58.1,56.4,29.77,SSE,157,0.0,3.0,94,0.00,,,0.08,239.00,VWS V14.00,2013-06-08 13:39:00,
2013-06-08 09:44:00,57.8,55.8,29.77,SSE,157,1.0,4.0,93,0.00,,,0.08,225.00,VWS V14.00,2013-06-08 13:44:00,
2013-06-08 09:49:00,57.6,55.6,29.77,SSE,157,2.0,4.0,93,0.00,,,0.08,167.00,VWS V14.00,2013-06-08 13:49:00,
2013-06-08 09:54:00,57.4,55.4,29.78,SSE,158,1.0,2.0,93,0.00,,,0.08,211.00,VWS V14.00,2013-06-08 13:54:00,
2013-06-08 09:59:00,57.2,55.2,29.78,SSE,158,0.0,2.0,93,0.00,,,0.08,102.00,VWS V14.00,2013-06-08 13:59:00,
2013-06-08 10:04:00,57.1,55.1,29.78,SSE,158,0.0,2.0,93,0.00,,,0.08,160.00,VWS V14.00,2013-06-08 14:04:00,
2013-06-08 10:09:00,57.1,55.1,29.78,SSE,163,1.0,3.0,93,0.00,,,0.08,167.00,VWS V14.00,2013-06-08 14:09:00,
2013-06-08 10:14:00,57.1,55.1,29.78,SSE,163,0.0,3.0,93,0.00,,,0.08,197.00,VWS V14.00,2013-06-08 14:14:00,
2013-06-08 10:19:00,57.1,55.1,29.78,SSE,163,2.0,2.0,93,0.00,,,0.08,156.00,VWS V14.00,2013-06-08 14:19:00,
2013-06-08 10:24:00,57.1,55.1,29.78,SSE,163,0.0,3.0,93,0.00,,,0.08,167.00,VWS V14.00,2013-06-08 14:24:00,
2013-06-08 10:29:00,57.1,55.1,29.78,SSE,163,0.0,1.0,93,0.00,,,0.08,149.00,VWS V14.00,2013-06-08 14:29:00,
2013-06-08 10:34:00,57.1,55.1,29.79,SSE,163,0.0,0.0,93,0.00,,,0.08,142.00,VWS V14.00,2013-06-08 14:34:00,
2013-06-08 10:39:00,57.1,55.1,29.79,SSE,163,0.0,1.0,93,0.00,,,0.08,155.00,VWS V14.00,2013-06-08 14:39:00,
2013-06-08 10:44:00,57.1,55.1,29.79,SSE,163,0.0,1.0,93,0.00,,,0.08,125.00,VWS V14.00,2013-06-08 14:44:00,
2013-06-08 10:49:00,57.1,55.1,29.80,SSE,163,2.0,3.0,93,0.00,,,0.08,142.00,VWS V14.00,2013-06-08 14:49:00,
2013-06-08 10:54:00,57.0,55.0,29.80,SSE,163,0.0,2.0,93,0.00,,,0.08,135.00,VWS V14.00,2013-06-08 14:54:00,
2013-06-08 10:59:00,56.9,54.9,29.80,SSE,163,0.0,2.0,93,0.00,,,0.08,149.00,VWS V14.00,2013-06-08 14:59:00,
2013-06-08 11:04:00,56.9,54.9,29.81,SSE,163,1.0,1.0,93,0.00,,,0.08,158.00,VWS V14.00,2013-06-08 15:04:00,
2013-06-08 11:09:00,56.9,54.9,29.81,SSE,163,0.0,2.0,93,0.00,,,0.08,202.00,VWS V14.00,2013-06-08 15:09:00,
2013-06-08 11:14:00,57.0,55.0,29.81,SSE,163,1.0,3.0,93,0.00,,,0.08,244.00,VWS V14.00,2013-06-08 15:14:00,
2013-06-08 11:19:00,57.1,55.1,29.81,SSE,163,1.0,2.0,93,0.00,,,0.08,218.00,VWS V14.00,2013-06-08 15:19:00,
2013-06-08 11:24:00,57.1,55.1,29.82,SSE,163,0.0,1.0,93,0.00,,,0.08,243.00,VWS V14.00,2013-06-08 15:24:00,
2013-06-08 11:29:00,57.2,55.2,29.82,SSE,163,0.0,3.0,93,0.00,,,0.08,260.00,VWS V14.00,2013-06-08 15:29:00,
2013-06-08 11:34:00,57.4,55.4,29.82,SSE,163,1.0,3.0,93,0.00,,,0.08,214.00,VWS V14.00,2013-06-08 15:34:00,
2013-06-08 11:39:00,57.6,55.6,29.83,SSE,163,0.0,1.0,93,0.00,,,0.08,237.00,VWS V14.00,2013-06-08 15:39:00,
2013-06-08 11:44:00,57.7,55.7,29.83,SSE,163,1.0,1.0,93,0.00,,,0.08,239.00,VWS V14.00,2013-06-08 15:44:00,
2013-06-08 11:49:00,57.6,55.6,29.82,SSE,163,0.0,0.0,93,0.00,,,0.08,207.00,VWS V14.00,2013-06-08 15:49:00,
2013-06-08 11:54:00,57.7,55.7,29.82,SSE,148,0.0,3.0,93,0.00,,,0.08,199.00,VWS V14.00,2013-06-08 15:54:00,
2013-06-08 11:59:00,57.7,55.7,29.82,SSE,148,0.0,3.0,93,0.00,,,0.08,169.00,VWS V14.00,2013-06-08 15:59:00,
2013-06-08 12:04:00,57.6,55.3,29.82,SSE,150,0.0,2.0,92,0.00,,,0.08,171.00,VWS V14.00,2013-06-08 16:04:00,
2013-06-08 12:09:00,57.7,55.7,29.82,SSE,150,1.0,2.0,93,0.00,,,0.08,192.00,VWS V14.00,2013-06-08 16:09:00,
2013-06-08 12:14:00,57.7,55.4,29.82,SE,138,0.0,2.0,92,0.00,,,0.08,174.00,VWS V14.00,2013-06-08 16:14:00,
2013-06-08 12:19:00,57.6,55.3,29.82,SE,134,0.0,3.0,92,0.00,,,0.08,248.00,VWS V14.00,2013-06-08 16:19:00,
2013-06-08 12:24:00,57.6,55.6,29.82,SE,138,1.0,3.0,93,0.00,,,0.08,192.00,VWS V14.00,2013-06-08 16:24:00,
2013-06-08 12:29:00,57.7,55.7,29.82,SE,138,0.0,4.0,93,0.00,,,0.08,229.00,VWS V14.00,2013-06-08 16:29:00,
2013-06-08 12:34:00,57.7,55.4,29.82,SE,136,0.0,3.0,92,0.00,,,0.08,148.00,VWS V14.00,2013-06-08 16:34:00,
2013-06-08 12:39:00,57.7,55.4,29.83,SE,136,0.0,0.0,92,0.00,,,0.08,197.00,VWS V14.00,2013-06-08 16:39:00,
2013-06-08 12:44:00,57.7,55.4,29.83,SE,136,0.0,1.0,92,0.00,,,0.08,197.00,VWS V14.00,2013-06-08 16:44:00,
2013-06-08 12:49:00,57.7,55.4,29.83,SE,141,0.0,4.0,92,0.00,,,0.08,322.00,VWS V14.00,2013-06-08 16:49:00,
2013-06-08 12:54:00,57.8,55.8,29.83,SE,142,0.0,2.0,93,0.00,,,0.08,265.00,VWS V14.00,2013-06-08 16:54:00,
2013-06-08 12:59:00,58.1,55.8,29.83,SE,141,0.0,2.0,92,0.00,,,0.08,285.00,VWS V14.00,2013-06-08 16:59:00,
2013-06-08 13:05:00,58.4,56.4,29.83,South,180,0.0,4.0,93,0.00,,,0.08,257.00,VWS V14.00,2013-06-08 17:05:00,
2013-06-08 13:10:00,58.7,56.4,29.83,South,178,1.0,3.0,92,0.00,,,0.08,295.00,VWS V14.00,2013-06-08 17:10:00,
2013-06-08 13:15:00,58.8,56.5,29.83,South,177,0.0,3.0,92,0.00,,,0.08,399.00,VWS V14.00,2013-06-08 17:15:00,
2013-06-08 13:20:00,59.0,56.7,29.83,South,175,2.0,3.0,92,0.00,,,0.08,257.00,VWS V14.00,2013-06-08 17:20:00,
2013-06-08 13:25:00,58.9,56.6,29.84,South,171,0.0,2.0,92,0.00,,,0.08,220.00,VWS V14.00,2013-06-08 17:25:00,
2013-06-08 13:30:00,58.7,56.1,29.84,South,171,0.0,2.0,91,0.00,,,0.08,107.00,VWS V14.00,2013-06-08 17:30:00,
2013-06-08 13:35:00,58.6,56.0,29.84,South,171,0.0,1.0,91,0.00,,,0.08,113.00,VWS V14.00,2013-06-08 17:35:00,
2013-06-08 13:40:00,58.5,55.9,29.84,South,171,1.0,2.0,91,0.00,,,0.08,130.00,VWS V14.00,2013-06-08 17:40:00,
2013-06-08 13:45:00,58.4,55.8,29.84,South,169,0.0,3.0,91,0.00,,,0.08,181.00,VWS V14.00,2013-06-08 17:45:00,
2013-06-08 13:50:00,58.2,55.6,29.84,South,169,3.0,4.0,91,0.00,,,0.08,137.00,VWS V14.00,2013-06-08 17:50:00,
2013-06-08 13:55:00,58.1,55.5,29.84,South,169,0.0,2.0,91,0.00,,,0.08,111.00,VWS V14.00,2013-06-08 17:55:00,
2013-06-08 14:00:00,58.1,55.5,29.84,South,169,0.0,3.0,91,0.00,,,0.08,137.00,VWS V14.00,2013-06-08 18:00:00,
2013-06-08 14:05:00,58.0,55.4,29.84,South,169,0.0,1.0,91,0.00,,,0.08,125.00,VWS V14.00,2013-06-08 18:05:00,
2013-06-08 14:10:00,57.9,55.3,29.84,South,169,0.0,2.0,91,0.00,,,0.08,163.00,VWS V14.00,2013-06-08 18:10:00,
2013-06-08 14:15:00,57.9,55.3,29.84,South,169,1.0,2.0,91,0.00,,,0.08,186.00,VWS V14.00,2013-06-08 18:15:00,
2013-06-08 14:20:00,57.9,55.3,29.84,SSE,161,0.0,3.0,91,0.00,,,0.08,230.00,VWS V14.00,2013-06-08 18:20:00,
2013-06-08 14:25:00,58.1,55.8,29.84,SSE,161,0.0,1.0,92,0.00,,,0.08,229.00,VWS V14.00,2013-06-08 18:25:00,
2013-06-08 14:30:00,58.1,55.8,29.84,SSE,161,0.0,1.0,92,0.00,,,0.08,253.00,VWS V14.00,2013-06-08 18:30:00,
2013-06-08 14:35:00,58.2,55.9,29.85,SSE,161,0.0,3.0,92,0.00,,,0.08,269.00,VWS V14.00,2013-06-08 18:35:00,
2013-06-08 14:40:00,58.4,56.1,29.85,SSE,161,0.0,2.0,92,0.00,,,0.08,301.00,VWS V14.00,2013-06-08 18:40:00,
2013-06-08 14:45:00,58.6,56.3,29.85,SSE,161,0.0,1.0,92,0.00,,,0.08,236.00,VWS V14.00,2013-06-08 18:45:00,
2013-06-08 14:50:00,58.8,56.5,29.86,SSE,161,0.0,3.0,92,0.00,,,0.08,162.00,VWS V14.00,2013-06-08 18:50:00,
2013-06-08 14:55:00,58.8,56.2,29.85,SSE,161,0.0,2.0,91,0.00,,,0.08,206.00,VWS V14.00,2013-06-08 18:55:00,
2013-06-08 15:00:00,58.9,56.3,29.85,SSE,161,0.0,2.0,91,0.00,,,0.08,155.00,VWS V14.00,2013-06-08 19:00:00,
2013-06-08 15:05:00,58.8,56.2,29.85,SSE,161,0.0,2.0,91,0.00,,,0.08,239.00,VWS V14.00,2013-06-08 19:05:00,
2013-06-08 15:10:00,58.9,56.3,29.85,SSE,161,0.0,2.0,91,0.00,,,0.08,195.00,VWS V14.00,2013-06-08 19:10:00,
2013-06-08 15:15:00,59.0,56.4,29.86,SSE,161,0.0,1.0,91,0.00,,,0.08,190.00,VWS V14.00,2013-06-08 19:15:00,
2013-06-08 15:20:00,59.1,56.5,29.86,SSE,161,0.0,1.0,91,0.00,,,0.08,135.00,VWS V14.00,2013-06-08 19:20:00,
2013-06-08 15:25:00,59.2,56.6,29.86,SSE,161,0.0,2.0,91,0.00,,,0.08,109.00,VWS V14.00,2013-06-08 19:25:00,
2013-06-08 15:30:00,59.2,56.6,29.86,SSE,161,0.0,1.0,91,0.00,,,0.08,118.00,VWS V14.00,2013-06-08 19:30:00,
2013-06-08 15:35:00,59.1,56.5,29.86,SSE,161,0.0,1.0,91,0.00,,,0.08,104.00,VWS V14.00,2013-06-08 19:35:00,
2013-06-08 15:40:00,59.1,56.5,29.86,SSE,161,1.0,2.0,91,0.00,,,0.08,116.00,VWS V14.00,2013-06-08 19:40:00,
2013-06-08 15:45:00,59.1,56.5,29.86,SSE,161,0.0,2.0,91,0.00,,,0.08,91.00,VWS V14.00,2013-06-08 19:45:00,
2013-06-08 15:50:00,59.1,56.5,29.86,SSE,161,0.0,3.0,91,0.00,,,0.08,104.00,VWS V14.00,2013-06-08 19:50:00,
2013-06-08 15:55:00,59.2,56.6,29.87,SSE,161,0.0,3.0,91,0.00,,,0.08,77.00,VWS V14.00,2013-06-08 19:55:00,
2013-06-08 16:00:00,59.2,56.6,29.87,SSE,165,0.0,3.0,91,0.00,,,0.08,76.00,VWS V14.00,2013-06-08 20:00:00,
2013-06-08 16:05:00,59.1,56.5,29.87,SSE,165,1.0,1.0,91,0.00,,,0.08,76.00,VWS V14.00,2013-06-08 20:05:00,
2013-06-08 16:10:00,59.1,56.5,29.87,SSE,165,0.0,1.0,91,0.00,,,0.08,63.00,VWS V14.00,2013-06-08 20:10:00,
2013-06-08 16:15:00,59.0,56.4,29.88,SSE,165,0.0,2.0,91,0.00,,,0.08,67.00,VWS V14.00,2013-06-08 20:15:00,
2013-06-08 16:20:00,58.9,56.3,29.88,SSE,165,1.0,1.0,91,0.00,,,0.08,65.00,VWS V14.00,2013-06-08 20:20:00,
2013-06-08 16:25:00,58.7,56.1,29.88,SSE,165,0.0,1.0,91,0.00,,,0.08,69.00,VWS V14.00,2013-06-08 20:25:00,
2013-06-08 16:30:00,58.6,56.0,29.88,SSE,165,0.0,1.0,91,0.00,,,0.08,98.00,VWS V14.00,2013-06-08 20:30:00,
2013-06-08 16:35:00,58.6,56.0,29.89,SSE,165,1.0,1.0,91,0.00,,,0.08,116.00,VWS V14.00,2013-06-08 20:35:00,
2013-06-08 16:40:00,58.6,56.3,29.89,SSE,165,0.0,2.0,92,0.00,,,0.08,171.00,VWS V14.00,2013-06-08 20:40:00,
2013-06-08 16:45:00,58.7,56.4,29.89,SSE,165,0.0,2.0,92,0.00,,,0.08,97.00,VWS V14.00,2013-06-08 20:45:00,
2013-06-08 16:50:00,58.7,56.4,29.90,SSE,165,0.0,2.0,92,0.00,,,0.08,91.00,VWS V14.00,2013-06-08 20:50:00,
2013-06-08 16:55:00,58.7,56.4,29.89,SSE,165,0.0,1.0,92,0.00,,,0.08,114.00,VWS V14.00,2013-06-08 20:55:00,
2013-06-08 17:00:00,58.6,56.3,29.89,SSE,165,0.0,1.0,92,0.00,,,0.08,121.00,VWS V14.00,2013-06-08 21:00:00,
2013-06-08 17:05:00,58.5,56.2,29.90,SSE,165,0.0,2.0,92,0.00,,,0.08,114.00,VWS V14.00,2013-06-08 21:05:00,
2013-06-08 17:10:00,58.5,56.2,29.90,SSE,165,0.0,2.0,92,0.00,,,0.08,102.00,VWS V14.00,2013-06-08 21:10:00,
2013-06-08 17:15:00,58.4,56.1,29.90,SSE,164,0.0,3.0,92,0.00,,,0.08,100.00,VWS V14.00,2013-06-08 21:15:00,
2013-06-08 17:20:00,58.4,56.1,29.90,SSE,164,0.0,0.0,92,0.00,,,0.08,111.00,VWS V14.00,2013-06-08 21:20:00,
2013-06-08 17:25:00,58.4,56.1,29.90,SSE,164,0.0,0.0,92,0.00,,,0.08,76.00,VWS V14.00,2013-06-08 21:25:00,
2013-06-08 17:30:00,58.4,56.4,29.90,SSE,164,0.0,1.0,93,0.00,,,0.08,88.00,VWS V14.00,2013-06-08 21:30:00,
2013-06-08 17:35:00,58.4,56.4,29.90,SSE,164,0.0,1.0,93,0.00,,,0.08,90.00,VWS V14.00,2013-06-08 21:35:00,
2013-06-08 17:40:00,58.4,56.4,29.90,SSE,164,0.0,1.0,93,0.00,,,0.08,79.00,VWS V14.00,2013-06-08 21:40:00,
2013-06-08 17:45:00,58.5,56.5,29.90,SSE,164,0.0,1.0,93,0.00,,,0.08,76.00,VWS V14.00,2013-06-08 21:45:00,
2013-06-08 17:50:00,58.5,56.5,29.91,SSE,164,0.0,0.0,93,0.00,,,0.08,97.00,VWS V14.00,2013-06-08 21:50:00,
2013-06-08 17:56:00,58.5,56.5,29.91,SSE,164,0.0,3.0,93,0.00,,,0.08,111.00,VWS V14.00,2013-06-08 21:56:00,
2013-06-08 18:01:00,58.6,56.6,29.90,SSE,167,0.0,4.0,93,0.00,,,0.08,149.00,VWS V14.00,2013-06-08 22:01:00,
2013-06-08 18:06:00,58.6,56.6,29.91,SSE,167,0.0,1.0,93,0.00,,,0.08,183.00,VWS V14.00,2013-06-08 22:06:00,
2013-06-08 18:11:00,58.7,56.7,29.91,SSE,167,0.0,2.0,93,0.00,,,0.08,156.00,VWS V14.00,2013-06-08 22:11:00,
2013-06-08 18:16:00,58.7,56.7,29.91,SSE,167,0.0,1.0,93,0.00,,,0.08,98.00,VWS V14.00,2013-06-08 22:16:00,
2013-06-08 18:21:00,58.7,56.7,29.92,SSE,167,0.0,2.0,93,0.00,,,0.08,107.00,VWS V14.00,2013-06-08 22:21:00,
2013-06-08 18:26:00,58.6,56.6,29.92,SSE,167,0.0,1.0,93,0.00,,,0.08,104.00,VWS V14.00,2013-06-08 22:26:00,
2013-06-08 18:31:00,58.7,56.7,29.92,SSE,167,0.0,2.0,93,0.00,,,0.08,107.00,VWS V14.00,2013-06-08 22:31:00,
2013-06-08 18:36:00,58.7,56.7,29.92,SSE,167,0.0,0.0,93,0.00,,,0.08,102.00,VWS V14.00,2013-06-08 22:36:00,
2013-06-08 18:41:00,58.7,56.7,29.93,SSE,167,0.0,1.0,93,0.00,,,0.08,69.00,VWS V14.00,2013-06-08 22:41:00,
2013-06-08 18:46:00,58.8,56.8,29.93,SSE,167,0.0,1.0,93,0.00,,,0.08,49.00,VWS V14.00,2013-06-08 22:46:00,
2013-06-08 18:51:00,58.7,56.7,29.93,SSE,167,0.0,1.0,93,0.00,,,0.08,39.00,VWS V14.00,2013-06-08 22:51:00,
2013-06-08 18:56:00,58.7,56.7,29.93,SSE,167,0.0,1.0,93,0.00,,,0.08,35.00,VWS V14.00,2013-06-08 22:56:00,
2013-06-08 19:01:00,58.7,56.7,29.93,SSE,167,0.0,0.0,93,0.00,,,0.08,30.00,VWS V14.00,2013-06-08 23:01:00,
2013-06-08 19:06:00,58.6,56.6,29.93,SSE,167,0.0,0.0,93,0.00,,,0.08,26.00,VWS V14.00,2013-06-08 23:06:00,
2013-06-08 19:11:00,58.6,56.6,29.93,SSE,167,0.0,0.0,93,0.00,,,0.08,26.00,VWS V14.00,2013-06-08 23:11:00,
2013-06-08 19:16:00,58.5,56.5,29.93,SSE,167,0.0,0.0,93,0.00,,,0.08,23.00,VWS V14.00,2013-06-08 23:16:00,
2013-06-08 19:21:00,58.4,56.4,29.93,SSE,167,0.0,2.0,93,0.00,,,0.08,26.00,VWS V14.00,2013-06-08 23:21:00,
2013-06-08 19:26:00,58.4,56.4,29.93,SSE,167,0.0,1.0,93,0.00,,,0.08,32.00,VWS V14.00,2013-06-08 23:26:00,
2013-06-08 19:31:00,58.3,56.3,29.93,SSE,167,0.0,0.0,93,0.00,,,0.08,28.00,VWS V14.00,2013-06-08 23:31:00,
2013-06-08 19:36:00,58.2,56.2,29.93,SSE,167,0.0,0.0,93,0.00,,,0.08,25.00,VWS V14.00,2013-06-08 23:36:00,
2013-06-08 19:41:00,58.2,56.2,29.93,SSE,167,0.0,0.0,93,0.00,,,0.08,19.00,VWS V14.00,2013-06-08 23:41:00,
2013-06-08 19:46:00,58.1,56.1,29.93,SSE,167,0.0,0.0,93,0.00,,,0.08,21.00,VWS V14.00,2013-06-08 23:46:00,
2013-06-08 19:51:00,58.1,56.1,29.93,SSE,167,0.0,0.0,93,0.00,,,0.08,21.00,VWS V14.00,2013-06-08 23:51:00,
2013-06-08 19:56:00,58.1,56.1,29.93,SSE,167,0.0,0.0,93,0.00,,,0.08,16.00,VWS V14.00,2013-06-08 23:56:00,
2013-06-08 20:01:00,58.0,56.0,29.94,SSE,167,0.0,0.0,93,0.00,,,0.08,16.00,VWS V14.00,2013-06-09 00:01:00,
2013-06-08 20:06:00,58.0,56.0,29.94,SSE,167,0.0,0.0,93,0.00,,,0.08,16.00,VWS V14.00,2013-06-09 00:06:00,
2013-06-08 20:11:00,58.0,56.0,29.94,SSE,167,0.0,0.0,93,0.00,,,0.08,14.00,VWS V14.00,2013-06-09 00:11:00,
2013-06-08 20:16:00,58.0,56.0,29.93,SSE,167,0.0,0.0,93,0.00,,,0.08,12.00,VWS V14.00,2013-06-09 00:16:00,
2013-06-08 20:21:00,57.9,55.9,29.93,SSE,167,0.0,0.0,93,0.00,,,0.08,9.00,VWS V14.00,2013-06-09 00:21:00,
2013-06-08 20:26:00,57.9,55.9,29.93,SSE,167,0.0,0.0,93,0.00,,,0.08,7.00,VWS V14.00,2013-06-09 00:26:00,
2013-06-08 20:31:00,57.8,55.8,29.93,SSE,167,0.0,0.0,93,0.00,,,0.08,0.00,VWS V14.00,2013-06-09 00:31:00,
2013-06-08 20:36:00,57.8,55.8,29.93,SSE,167,0.0,0.0,93,0.00,,,0.08,0.00,VWS V14.00,2013-06-09 00:36:00,
2013-06-08 20:41:00,57.8,55.8,29.93,SSE,167,0.0,0.0,93,0.00,,,0.08,0.00,VWS V14.00,2013-06-09 00:41:00,
2013-06-08 20:46:00,57.8,55.8,29.93,SSE,167,0.0,0.0,93,0.00,,,0.08,0.00,VWS V14.00,2013-06-09 00:46:00,
2013-06-08 20:51:00,57.7,55.7,29.94,SSE,167,0.0,0.0,93,0.00,,,0.08,0.00,VWS V14.00,2013-06-09 00:51:00,
2013-06-08 20:56:00,57.7,55.7,29.94,SSE,167,0.0,0.0,93,0.00,,,0.08,0.00,VWS V14.00,2013-06-09 00:56:00,
2013-06-08 21:02:00,57.7,55.7,29.94,SSE,167,0.0,0.0,93,0.00,,,0.08,0.00,VWS V14.00,2013-06-09 01:02:00,
2013-06-08 21:06:00,57.6,55.6,29.94,SSE,167,0.0,0.0,93,0.00,,,0.08,0.00,VWS V14.00,2013-06-09 01:06:00,
2013-06-08 21:11:00,57.6,55.6,29.95,SSE,167,0.0,0.0,93,0.00,,,0.08,0.00,VWS V14.00,2013-06-09 01:11:00,
2013-06-08 21:16:00,57.6,55.6,29.95,SSE,167,0.0,0.0,93,0.00,,,0.08,0.00,VWS V14.00,2013-06-09 01:16:00,
2013-06-08 21:22:00,57.5,55.5,29.95,SSE,167,0.0,0.0,93,0.00,,,0.08,0.00,VWS V14.00,2013-06-09 01:22:00,
2013-06-08 21:27:00,57.5,55.5,29.96,SSE,167,0.0,0.0,93,0.00,,,0.08,0.00,VWS V14.00,2013-06-09 01:27:00,
2013-06-08 21:32:00,57.4,55.4,29.96,SSE,167,0.0,0.0,93,0.00,,,0.08,0.00,VWS V14.00,2013-06-09 01:32:00,
2013-06-08 21:37:00,57.3,55.3,29.96,SSE,167,0.0,0.0,93,0.00,,,0.08,0.00,VWS V14.00,2013-06-09 01:37:00,
2013-06-08 21:42:00,57.3,55.3,29.96,SSE,167,0.0,0.0,93,0.00,,,0.08,0.00,VWS V14.00,2013-06-09 01:42:00,
2013-06-08 21:47:00,57.3,55.3,29.96,SSE,167,0.0,0.0,93,0.00,,,0.08,0.00,VWS V14.00,2013-06-09 01:47:00,
2013-06-08 21:52:00,57.2,55.2,29.96,SSE,167,0.0,0.0,93,0.00,,,0.08,0.00,VWS V14.00,2013-06-09 01:52:00,
2013-06-08 21:57:00,57.2,55.2,29.96,SSE,167,0.0,0.0,93,0.00,,,0.08,0.00,VWS V14.00,2013-06-09 01:57:00,
2013-06-08 22:02:00,57.2,55.2,29.97,SSE,167,0.0,0.0,93,0.00,,,0.08,0.00,VWS V14.00,2013-06-09 02:02:00,
2013-06-08 22:07:00,57.1,55.1,29.97,SSE,167,0.0,0.0,93,0.00,,,0.08,0.00,VWS V14.00,2013-06-09 02:07:00,
2013-06-08 22:12:00,57.1,55.1,29.97,SSE,167,0.0,0.0,93,0.00,,,0.08,0.00,VWS V14.00,2013-06-09 02:12:00,
2013-06-08 22:17:00,57.1,55.1,29.97,SSE,167,0.0,0.0,93,0.00,,,0.08,0.00,VWS V14.00,2013-06-09 02:17:00,
2013-06-08 22:22:00,57.1,55.1,29.98,SSE,167,0.0,0.0,93,0.00,,,0.08,0.00,VWS V14.00,2013-06-09 02:22:00,
2013-06-08 22:27:00,57.1,55.1,29.98,SSE,167,0.0,0.0,93,0.00,,,0.08,0.00,VWS V14.00,2013-06-09 02:27:00,
2013-06-08 22:32:00,57.1,55.1,29.98,SSE,167,0.0,0.0,93,0.00,,,0.08,0.00,VWS V14.00,2013-06-09 02:32:00,
2013-06-08 22:37:00,57.1,55.1,29.99,SSE,167,0.0,0.0,93,0.00,,,0.08,0.00,VWS V14.00,2013-06-09 02:37:00,
2013-06-08 22:42:00,57.1,55.4,29.99,SSE,167,0.0,0.0,94,0.00,,,0.08,0.00,VWS V14.00,2013-06-09 02:42:00,
2013-06-08 22:47:00,57.1,55.4,29.99,SSE,167,0.0,0.0,94,0.00,,,0.08,0.00,VWS V14.00,2013-06-09 02:47:00,
2013-06-08 22:52:00,57.1,55.4,29.99,SSE,167,0.0,1.0,94,0.00,,,0.08,0.00,VWS V14.00,2013-06-09 02:52:00,
2013-06-08 22:57:00,57.1,55.4,29.99,SSE,167,0.0,0.0,94,0.00,,,0.08,0.00,VWS V14.00,2013-06-09 02:57:00,
2013-06-08 23:02:00,57.1,55.4,29.99,SSE,167,0.0,0.0,94,0.00,,,0.08,0.00,VWS V14.00,2013-06-09 03:02:00,
2013-06-08 23:07:00,57.1,55.4,29.99,SSE,167,0.0,0.0,94,0.00,,,0.08,0.00,VWS V14.00,2013-06-09 03:07:00,
2013-06-08 23:12:00,57.1,55.4,29.99,SSE,167,0.0,0.0,94,0.00,,,0.08,0.00,VWS V14.00,2013-06-09 03:12:00,
2013-06-08 23:17:00,57.0,55.3,29.99,SSE,167,0.0,0.0,94,0.00,,,0.08,0.00,VWS V14.00,2013-06-09 03:17:00,
2013-06-08 23:22:00,57.0,55.3,29.99,SSE,167,0.0,0.0,94,0.00,,,0.08,0.00,VWS V14.00,2013-06-09 03:22:00,
2013-06-08 23:27:00,56.9,55.2,29.99,SSE,167,0.0,0.0,94,0.00,,,0.08,0.00,VWS V14.00,2013-06-09 03:27:00,
2013-06-08 23:32:00,56.9,55.2,29.99,SSE,167,0.0,2.0,94,0.00,,,0.08,0.00,VWS V14.00,2013-06-09 03:32:00,
2013-06-08 23:37:00,56.9,55.2,29.99,SSE,167,0.0,0.0,94,0.00,,,0.08,0.00,VWS V14.00,2013-06-09 03:37:00,
2013-06-08 23:42:00,56.8,55.1,29.99,SSE,167,0.0,0.0,94,0.00,,,0.08,0.00,VWS V14.00,2013-06-09 03:42:00,
2013-06-08 23:47:00,56.8,55.1,29.99,SSE,167,0.0,2.0,94,0.00,,,0.08,0.00,VWS V14.00,2013-06-09 03:47:00,
2013-06-08 23:52:00,56.7,55.0,29.99,SSE,167,1.0,1.0,94,0.00,,,0.08,0.00,VWS V14.00,2013-06-09 03:52:00,
2013-06-08 23:57:00,56.7,55.0,29.99,SSE,167,0.0,0.0,94,0.00,,,0.08,0.00,VWS V14.00,2013-06-09 03:57:00,